Terminal Aerodrome Forecast
Issued by NWS Dallas/Fort Worth, TX

Home | Current Version | Previous Version | Text Only | Print | Product List | Glossary On
Versions: 1 2 3 4 5 6 7 8 9 10 11 12 13 14 15 16 17 18 19 20 21 22 23 24 25 26 27 28
000
FTUS44 KFWD 211100
TAFACT
TAF
KACT 211131Z 2112/2212 19011KT P6SM BKN010
     FM211800 19013KT P6SM SCT030 SCT250
     FM212100 18010KT P6SM VCTS BKN050CB
      TEMPO 2122/2201 -TSRA BKN030CB
     FM220500 33006KT P6SM FEW050 BKN250=

USA.gov is the U.S. government's official web portal to all federal, state and local government web resources and services.